sensor_id;sensor_type;location;lat;lon;timestamp;pressure;altitude;pressure_sealevel;temperature;humidity
43450;BME280;29041;42.266;23.110;2023-07-20T00:01:37;95467.94;;;24.40;56.69
43450;BME280;29041;42.266;23.110;2023-07-20T00:04:26;95467.66;;;24.35;56.96
43450;BME280;29041;42.266;23.110;2023-07-20T00:07:13;95473.72;;;24.46;56.10
43450;BME280;29041;42.266;23.110;2023-07-20T00:10:00;95465.25;;;24.37;56.25
43450;BME280;29041;42.266;23.110;2023-07-20T00:12:47;95466.84;;;24.14;58.03
43450;BME280;29041;42.266;23.110;2023-07-20T00:15:34;95472.06;;;23.81;59.37
43450;BME280;29041;42.266;23.110;2023-07-20T00:18:21;95462.50;;;23.93;59.35
43450;BME280;29041;42.266;23.110;2023-07-20T00:21:10;95459.84;;;24.10;58.74
43450;BME280;29041;42.266;23.110;2023-07-20T00:23:57;95451.34;;;24.04;58.82
43450;BME280;29041;42.266;23.110;2023-07-20T00:26:44;95436.91;;;24.00;59.57
43450;BME280;29041;42.266;23.110;2023-07-20T00:29:32;95448.94;;;23.82;59.91
43450;BME280;29041;42.266;23.110;2023-07-20T00:32:19;95452.41;;;24.10;59.46
43450;BME280;29041;42.266;23.110;2023-07-20T00:35:06;95437.25;;;24.26;58.57
43450;BME280;29041;42.266;23.110;2023-07-20T00:37:55;95454.50;;;24.02;59.72
43450;BME280;29041;42.266;23.110;2023-07-20T00:40:42;95448.38;;;23.95;60.04
43450;BME280;29041;42.266;23.110;2023-07-20T00:43:29;95452.00;;;23.60;61.73
43450;BME280;29041;42.266;23.110;2023-07-20T00:46:16;95443.69;;;23.68;61.50
43450;BME280;29041;42.266;23.110;2023-07-20T00:49:04;95439.34;;;23.70;61.97
43450;BME280;29041;42.266;23.110;2023-07-20T00:51:52;95438.38;;;23.29;63.30
43450;BME280;29041;42.266;23.110;2023-07-20T00:54:41;95432.38;;;23.38;63.77
43450;BME280;29041;42.266;23.110;2023-07-20T00:57:28;95439.78;;;22.79;66.53
43450;BME280;29041;42.266;23.110;2023-07-20T01:00:16;95426.19;;;23.03;64.98
43450;BME280;29041;42.266;23.110;2023-07-20T01:03:03;95432.06;;;23.02;64.85
43450;BME280;29041;42.266;23.110;2023-07-20T01:05:54;95420.13;;;23.19;64.57
43450;BME280;29041;42.266;23.110;2023-07-20T01:08:46;95414.91;;;22.66;66.70
43450;BME280;29041;42.266;23.110;2023-07-20T01:11:38;95423.00;;;23.08;65.82
43450;BME280;29041;42.266;23.110;2023-07-20T01:14:26;95420.66;;;23.61;62.94
43450;BME280;29041;42.266;23.110;2023-07-20T01:17:13;95407.94;;;23.75;62.09
43450;BME280;29041;42.266;23.110;2023-07-20T01:20:00;95408.66;;;23.79;62.51
43450;BME280;29041;42.266;23.110;2023-07-20T01:23:17;95429.22;;;23.09;65.91
43450;BME280;29041;42.266;23.110;2023-07-20T01:26:22;95428.88;;;22.76;66.69
43450;BME280;29041;42.266;23.110;2023-07-20T01:29:30;95435.06;;;22.80;67.28
43450;BME280;29041;42.266;23.110;2023-07-20T01:32:23;95422.94;;;22.81;67.46
43450;BME280;29041;42.266;23.110;2023-07-20T01:35:11;95424.81;;;22.57;68.10
43450;BME280;29041;42.266;23.110;2023-07-20T01:38:01;95417.06;;;22.52;68.55
43450;BME280;29041;42.266;23.110;2023-07-20T01:40:49;95418.03;;;22.69;68.22
43450;BME280;29041;42.266;23.110;2023-07-20T01:43:36;95402.22;;;22.80;68.12
43450;BME280;29041;42.266;23.110;2023-07-20T01:46:23;95408.31;;;22.95;67.30
43450;BME280;29041;42.266;23.110;2023-07-20T01:49:12;95413.25;;;22.42;69.71
43450;BME280;29041;42.266;23.110;2023-07-20T01:51:59;95409.94;;;22.19;70.78
43450;BME280;29041;42.266;23.110;2023-07-20T01:54:46;95413.47;;;21.75;73.54
43450;BME280;29041;42.266;23.110;2023-07-20T01:57:33;95415.75;;;21.83;72.99
43450;BME280;29041;42.266;23.110;2023-07-20T02:00:21;95418.53;;;22.22;70.46
43450;BME280;29041;42.266;23.110;2023-07-20T02:03:10;95407.56;;;22.25;70.22
43450;BME280;29041;42.266;23.110;2023-07-20T02:05:59;95414.13;;;23.01;67.68
43450;BME280;29041;42.266;23.110;2023-07-20T02:08:46;95410.63;;;22.96;66.97
43450;BME280;29041;42.266;23.110;2023-07-20T02:11:34;95419.13;;;22.75;67.96
43450;BME280;29041;42.266;23.110;2023-07-20T02:14:21;95422.19;;;22.80;67.69
43450;BME280;29041;42.266;23.110;2023-07-20T02:17:09;95426.69;;;22.63;68.13
43450;BME280;29041;42.266;23.110;2023-07-20T02:19:57;95426.06;;;22.48;70.41
43450;BME280;29041;42.266;23.110;2023-07-20T02:22:46;95426.88;;;22.45;69.83
43450;BME280;29041;42.266;23.110;2023-07-20T02:25:33;95429.91;;;22.13;72.16
43450;BME280;29041;42.266;23.110;2023-07-20T02:28:20;95427.69;;;22.00;72.69
43450;BME280;29041;42.266;23.110;2023-07-20T02:31:08;95426.38;;;22.16;72.55
43450;BME280;29041;42.266;23.110;2023-07-20T02:33:55;95424.75;;;22.60;69.93
43450;BME280;29041;42.266;23.110;2023-07-20T02:36:42;95422.78;;;22.61;69.83
43450;BME280;29041;42.266;23.110;2023-07-20T02:39:30;95413.56;;;22.09;73.17
43450;BME280;29041;42.266;23.110;2023-07-20T02:42:17;95418.69;;;22.03;72.90
43450;BME280;29041;42.266;23.110;2023-07-20T02:45:15;95421.25;;;21.80;73.57
43450;BME280;29041;42.266;23.110;2023-07-20T02:48:03;95406.06;;;21.75;73.97
43450;BME280;29041;42.266;23.110;2023-07-20T02:50:53;95412.50;;;21.96;72.99
43450;BME280;29041;42.266;23.110;2023-07-20T02:53:40;95400.09;;;21.87;73.55
43450;BME280;29041;42.266;23.110;2023-07-20T02:56:29;95396.69;;;21.76;74.22
43450;BME280;29041;42.266;23.110;2023-07-20T02:59:17;95394.84;;;21.62;74.57
43450;BME280;29041;42.266;23.110;2023-07-20T03:02:04;95393.00;;;21.45;75.47
43450;BME280;29041;42.266;23.110;2023-07-20T03:04:51;95405.81;;;21.59;75.14
43450;BME280;29041;42.266;23.110;2023-07-20T03:07:39;95396.47;;;21.52;75.63
43450;BME280;29041;42.266;23.110;2023-07-20T03:10:29;95396.47;;;21.52;75.97
43450;BME280;29041;42.266;23.110;2023-07-20T03:13:17;95411.00;;;21.35;77.13
43450;BME280;29041;42.266;23.110;2023-07-20T03:16:04;95409.06;;;21.39;77.14
43450;BME280;29041;42.266;23.110;2023-07-20T03:18:58;95402.81;;;21.35;76.93
43450;BME280;29041;42.266;23.110;2023-07-20T03:21:49;95416.66;;;21.06;78.58
43450;BME280;29041;42.266;23.110;2023-07-20T03:24:36;95414.66;;;21.17;77.65
43450;BME280;29041;42.266;23.110;2023-07-20T03:27:23;95422.19;;;20.95;78.77
43450;BME280;29041;42.266;23.110;2023-07-20T03:30:12;95426.56;;;20.78;81.14
43450;BME280;29041;42.266;23.110;2023-07-20T03:32:59;95434.34;;;20.72;80.54
43450;BME280;29041;42.266;23.110;2023-07-20T03:35:46;95436.28;;;20.83;80.09
43450;BME280;29041;42.266;23.110;2023-07-20T03:38:33;95431.59;;;20.83;79.56
43450;BME280;29041;42.266;23.110;2023-07-20T03:41:20;95445.63;;;20.82;79.94
43450;BME280;29041;42.266;23.110;2023-07-20T03:44:08;95434.13;;;21.19;77.94
43450;BME280;29041;42.266;23.110;2023-07-20T03:46:56;95429.38;;;21.31;77.00
43450;BME280;29041;42.266;23.110;2023-07-20T03:49:46;95420.97;;;21.03;78.64
43450;BME280;29041;42.266;23.110;2023-07-20T03:52:33;95432.28;;;21.05;78.81
43450;BME280;29041;42.266;23.110;2023-07-20T03:55:20;95435.53;;;21.42;77.13
43450;BME280;29041;42.266;23.110;2023-07-20T03:58:07;95437.94;;;21.36;78.29
43450;BME280;29041;42.266;23.110;2023-07-20T04:00:54;95440.34;;;21.23;79.59
43450;BME280;29041;42.266;23.110;2023-07-20T04:03:43;95451.13;;;20.74;82.21
43450;BME280;29041;42.266;23.110;2023-07-20T04:06:30;95451.16;;;21.42;77.43
43450;BME280;29041;42.266;23.110;2023-07-20T04:09:17;95435.03;;;21.65;76.90
43450;BME280;29041;42.266;23.110;2023-07-20T04:12:05;95428.84;;;21.50;77.49
43450;BME280;29041;42.266;23.110;2023-07-20T04:14:52;95428.69;;;21.12;79.26
43450;BME280;29041;42.266;23.110;2023-07-20T04:17:40;95429.94;;;21.00;80.15
43450;BME280;29041;42.266;23.110;2023-07-20T04:20:28;95426.03;;;21.05;79.65
43450;BME280;29041;42.266;23.110;2023-07-20T04:23:16;95428.44;;;20.96;80.49
43450;BME280;29041;42.266;23.110;2023-07-20T04:26:03;95419.72;;;21.15;79.86
43450;BME280;29041;42.266;23.110;2023-07-20T04:28:52;95408.53;;;20.95;80.05
43450;BME280;29041;42.266;23.110;2023-07-20T04:31:39;95412.78;;;21.03;80.16
43450;BME280;29041;42.266;23.110;2023-07-20T04:34:26;95422.06;;;21.17;80.32
43450;BME280;29041;42.266;23.110;2023-07-20T04:37:15;95421.25;;;21.80;77.60
43450;BME280;29041;42.266;23.110;2023-07-20T04:40:02;95420.81;;;21.29;79.21
43450;BME280;29041;42.266;23.110;2023-07-20T04:42:50;95412.25;;;21.23;80.10
43450;BME280;29041;42.266;23.110;2023-07-20T04:45:37;95420.34;;;21.37;79.69
43450;BME280;29041;42.266;23.110;2023-07-20T04:48:24;95420.22;;;21.63;78.73
43450;BME280;29041;42.266;23.110;2023-07-20T04:51:11;95421.09;;;22.36;74.93
43450;BME280;29041;42.266;23.110;2023-07-20T04:54:00;95428.13;;;22.72;72.93
43450;BME280;29041;42.266;23.110;2023-07-20T04:56:47;95430.88;;;22.72;73.51
43450;BME280;29041;42.266;23.110;2023-07-20T04:59:34;95437.09;;;22.38;75.01
43450;BME280;29041;42.266;23.110;2023-07-20T05:02:21;95433.38;;;22.21;75.87
43450;BME280;29041;42.266;23.110;2023-07-20T05:05:08;95427.06;;;22.24;76.39
43450;BME280;29041;42.266;23.110;2023-07-20T05:07:55;95423.91;;;22.29;76.24
43450;BME280;29041;42.266;23.110;2023-07-20T05:10:43;95423.38;;;22.45;74.53
43450;BME280;29041;42.266;23.110;2023-07-20T05:13:31;95425.13;;;22.62;73.77
43450;BME280;29041;42.266;23.110;2023-07-20T05:16:18;95430.16;;;22.68;73.70
43450;BME280;29041;42.266;23.110;2023-07-20T05:19:05;95410.28;;;22.63;73.24
43450;BME280;29041;42.266;23.110;2023-07-20T05:21:52;95425.06;;;23.01;72.58
43450;BME280;29041;42.266;23.110;2023-07-20T05:24:39;95418.41;;;23.56;69.41
43450;BME280;29041;42.266;23.110;2023-07-20T05:27:28;95417.06;;;23.41;69.30
43450;BME280;29041;42.266;23.110;2023-07-20T05:30:15;95415.88;;;23.42;69.65
43450;BME280;29041;42.266;23.110;2023-07-20T05:33:02;95413.97;;;23.39;68.89
43450;BME280;29041;42.266;23.110;2023-07-20T05:35:49;95414.56;;;23.77;67.73
43450;BME280;29041;42.266;23.110;2023-07-20T05:38:36;95416.75;;;23.63;67.64
43450;BME280;29041;42.266;23.110;2023-07-20T05:41:24;95414.84;;;23.59;68.23
43450;BME280;29041;42.266;23.110;2023-07-20T05:44:12;95420.97;;;23.95;66.79
43450;BME280;29041;42.266;23.110;2023-07-20T05:46:59;95426.03;;;24.60;64.27
43450;BME280;29041;42.266;23.110;2023-07-20T05:49:48;95425.09;;;24.47;64.10
43450;BME280;29041;42.266;23.110;2023-07-20T05:52:35;95425.19;;;24.63;62.95
43450;BME280;29041;42.266;23.110;2023-07-20T05:55:24;95416.94;;;24.43;64.58
43450;BME280;29041;42.266;23.110;2023-07-20T05:58:11;95430.13;;;24.52;64.21
43450;BME280;29041;42.266;23.110;2023-07-20T06:01:00;95431.59;;;24.77;64.10
43450;BME280;29041;42.266;23.110;2023-07-20T06:03:48;95410.25;;;24.44;62.49
43450;BME280;29041;42.266;23.110;2023-07-20T06:06:35;95423.56;;;24.86;61.30
43450;BME280;29041;42.266;23.110;2023-07-20T06:09:22;95419.59;;;25.44;59.12
43450;BME280;29041;42.266;23.110;2023-07-20T06:12:09;95419.44;;;25.51;59.15
43450;BME280;29041;42.266;23.110;2023-07-20T06:14:56;95427.50;;;25.05;60.77
43450;BME280;29041;42.266;23.110;2023-07-20T06:17:45;95424.09;;;25.17;60.17
43450;BME280;29041;42.266;23.110;2023-07-20T06:20:33;95413.94;;;25.51;58.61
43450;BME280;29041;42.266;23.110;2023-07-20T06:23:20;95405.69;;;25.51;58.62
43450;BME280;29041;42.266;23.110;2023-07-20T06:26:07;95407.06;;;25.76;57.80
43450;BME280;29041;42.266;23.110;2023-07-20T06:28:55;95405.44;;;25.95;57.59
43450;BME280;29041;42.266;23.110;2023-07-20T06:31:42;95394.78;;;26.13;58.35
43450;BME280;29041;42.266;23.110;2023-07-20T06:34:31;95379.50;;;26.25;56.74
43450;BME280;29041;42.266;23.110;2023-07-20T06:37:22;95383.78;;;26.85;54.57
43450;BME280;29041;42.266;23.110;2023-07-20T06:40:10;95376.53;;;26.91;52.28
43450;BME280;29041;42.266;23.110;2023-07-20T06:42:58;95376.09;;;26.51;54.40
43450;BME280;29041;42.266;23.110;2023-07-20T06:45:51;95375.63;;;26.95;54.24
43450;BME280;29041;42.266;23.110;2023-07-20T06:48:39;95366.06;;;26.99;52.81
43450;BME280;29041;42.266;23.110;2023-07-20T06:51:27;95371.56;;;27.51;52.32
43450;BME280;29041;42.266;23.110;2023-07-20T06:54:14;95365.09;;;27.93;51.47
43450;BME280;29041;42.266;23.110;2023-07-20T06:57:02;95366.56;;;28.20;49.88
43450;BME280;29041;42.266;23.110;2023-07-20T06:59:49;95365.22;;;28.24;48.89
43450;BME280;29041;42.266;23.110;2023-07-20T07:02:36;95375.44;;;27.53;49.64
43450;BME280;29041;42.266;23.110;2023-07-20T07:05:23;95397.59;;;27.24;50.95
43450;BME280;29041;42.266;23.110;2023-07-20T07:08:12;95406.09;;;28.03;49.85
43450;BME280;29041;42.266;23.110;2023-07-20T07:10:59;95418.94;;;27.84;50.89
43450;BME280;29041;42.266;23.110;2023-07-20T07:13:46;95418.09;;;27.49;52.92
43450;BME280;29041;42.266;23.110;2023-07-20T07:16:36;95418.66;;;27.57;51.46
43450;BME280;29041;42.266;23.110;2023-07-20T07:19:23;95419.41;;;27.57;51.96
43450;BME280;29041;42.266;23.110;2023-07-20T07:22:10;95417.47;;;27.45;51.02
43450;BME280;29041;42.266;23.110;2023-07-20T07:25:01;95418.41;;;27.38;51.75
43450;BME280;29041;42.266;23.110;2023-07-20T07:27:48;95420.47;;;27.98;51.22
43450;BME280;29041;42.266;23.110;2023-07-20T07:30:37;95426.25;;;27.65;51.91
43450;BME280;29041;42.266;23.110;2023-07-20T07:33:24;95427.34;;;27.81;51.43
43450;BME280;29041;42.266;23.110;2023-07-20T07:36:11;95419.59;;;28.59;50.45
43450;BME280;29041;42.266;23.110;2023-07-20T07:38:59;95426.88;;;29.41;49.01
43450;BME280;29041;42.266;23.110;2023-07-20T07:41:48;95426.28;;;28.00;51.97
43450;BME280;29041;42.266;23.110;2023-07-20T07:44:35;95437.19;;;29.19;47.96
43450;BME280;29041;42.266;23.110;2023-07-20T07:47:22;95429.09;;;28.71;48.11
43450;BME280;29041;42.266;23.110;2023-07-20T07:50:10;95420.06;;;28.79;48.04
43450;BME280;29041;42.266;23.110;2023-07-20T07:52:57;95440.47;;;29.26;46.97
43450;BME280;29041;42.266;23.110;2023-07-20T07:55:44;95444.34;;;29.79;43.09
43450;BME280;29041;42.266;23.110;2023-07-20T07:58:33;95438.00;;;29.28;46.22
43450;BME280;29041;42.266;23.110;2023-07-20T08:01:20;95396.03;;;31.29;42.44
43450;BME280;29041;42.266;23.110;2023-07-20T08:04:07;95393.06;;;33.08;37.63
43450;BME280;29041;42.266;23.110;2023-07-20T08:06:54;95389.13;;;35.21;33.42
43450;BME280;29041;42.266;23.110;2023-07-20T08:09:42;95372.16;;;35.31;33.19
43450;BME280;29041;42.266;23.110;2023-07-20T08:12:29;95371.47;;;35.04;33.58
43450;BME280;29041;42.266;23.110;2023-07-20T08:15:18;95366.81;;;35.21;33.88
43450;BME280;29041;42.266;23.110;2023-07-20T08:18:05;95368.25;;;36.70;30.71
43450;BME280;29041;42.266;23.110;2023-07-20T08:20:53;95372.81;;;37.86;29.31
43450;BME280;29041;42.266;23.110;2023-07-20T08:23:40;95374.94;;;37.06;29.58
43450;BME280;29041;42.266;23.110;2023-07-20T08:26:28;95375.75;;;34.99;32.92
43450;BME280;29041;42.266;23.110;2023-07-20T08:29:15;95375.69;;;36.12;31.73
43450;BME280;29041;42.266;23.110;2023-07-20T08:32:04;95370.19;;;36.35;31.54
43450;BME280;29041;42.266;23.110;2023-07-20T08:34:52;95355.59;;;37.08;29.46
43450;BME280;29041;42.266;23.110;2023-07-20T08:37:39;95346.28;;;39.49;26.39
43450;BME280;29041;42.266;23.110;2023-07-20T08:40:26;95339.50;;;37.66;28.17
43450;BME280;29041;42.266;23.110;2023-07-20T08:43:14;95341.09;;;37.10;28.94
43450;BME280;29041;42.266;23.110;2023-07-20T08:46:03;95346.94;;;37.40;27.72
43450;BME280;29041;42.266;23.110;2023-07-20T08:48:52;95333.13;;;38.30;26.53
43450;BME280;29041;42.266;23.110;2023-07-20T08:51:41;95343.38;;;39.35;25.27
43450;BME280;29041;42.266;23.110;2023-07-20T08:54:30;95344.06;;;39.66;24.89
43450;BME280;29041;42.266;23.110;2023-07-20T08:57:19;95344.06;;;37.63;27.94
43450;BME280;29041;42.266;23.110;2023-07-20T09:00:09;95355.56;;;36.86;28.91
43450;BME280;29041;42.266;23.110;2023-07-20T09:02:58;95362.53;;;34.68;32.15
43450;BME280;29041;42.266;23.110;2023-07-20T09:05:49;95365.56;;;34.23;34.32
43450;BME280;29041;42.266;23.110;2023-07-20T09:08:38;95352.63;;;36.23;30.49
43450;BME280;29041;42.266;23.110;2023-07-20T09:11:25;95332.66;;;36.47;31.70
43450;BME280;29041;42.266;23.110;2023-07-20T09:14:12;95324.19;;;35.58;33.09
43450;BME280;29041;42.266;23.110;2023-07-20T09:16:59;95326.22;;;35.64;32.70
43450;BME280;29041;42.266;23.110;2023-07-20T09:19:47;95330.78;;;36.21;31.29
43450;BME280;29041;42.266;23.110;2023-07-20T09:22:36;95336.38;;;35.23;33.85
43450;BME280;29041;42.266;23.110;2023-07-20T09:25:26;95339.84;;;34.33;33.11
43450;BME280;29041;42.266;23.110;2023-07-20T09:28:14;95335.47;;;35.87;31.49
43450;BME280;29041;42.266;23.110;2023-07-20T09:31:15;95323.28;;;37.13;29.41
43450;BME280;29041;42.266;23.110;2023-07-20T09:34:04;95316.91;;;36.61;30.31
43450;BME280;29041;42.266;23.110;2023-07-20T09:36:51;95321.41;;;38.73;27.67
43450;BME280;29041;42.266;23.110;2023-07-20T09:39:44;95319.00;;;39.19;26.88
43450;BME280;29041;42.266;23.110;2023-07-20T09:42:31;95329.13;;;38.61;27.53
43450;BME280;29041;42.266;23.110;2023-07-20T09:45:18;95319.88;;;38.30;28.37
43450;BME280;29041;42.266;23.110;2023-07-20T09:48:07;95315.78;;;38.43;28.10
43450;BME280;29041;42.266;23.110;2023-07-20T09:50:54;95317.44;;;36.82;30.07
43450;BME280;29041;42.266;23.110;2023-07-20T09:53:43;95325.28;;;35.35;32.52
43450;BME280;29041;42.266;23.110;2023-07-20T09:56:33;95330.06;;;34.64;34.27
43450;BME280;29041;42.266;23.110;2023-07-20T09:59:20;95327.22;;;33.71;35.70
43450;BME280;29041;42.266;23.110;2023-07-20T10:02:16;95324.66;;;33.46;35.67
43450;BME280;29041;42.266;23.110;2023-07-20T10:05:08;95318.59;;;33.68;36.37
43450;BME280;29041;42.266;23.110;2023-07-20T10:07:56;95328.28;;;33.73;35.23
43450;BME280;29041;42.266;23.110;2023-07-20T10:10:45;95330.69;;;34.27;35.52
43450;BME280;29041;42.266;23.110;2023-07-20T10:13:38;95322.09;;;33.84;34.98
43450;BME280;29041;42.266;23.110;2023-07-20T10:16:28;95315.69;;;33.57;36.04
43450;BME280;29041;42.266;23.110;2023-07-20T10:19:22;95317.06;;;33.67;35.38
43450;BME280;29041;42.266;23.110;2023-07-20T10:22:14;95308.25;;;33.90;35.69
43450;BME280;29041;42.266;23.110;2023-07-20T10:25:04;95300.59;;;33.28;36.41
43450;BME280;29041;42.266;23.110;2023-07-20T10:27:52;95303.13;;;34.56;33.53
43450;BME280;29041;42.266;23.110;2023-07-20T10:30:42;95311.28;;;34.59;33.36
43450;BME280;29041;42.266;23.110;2023-07-20T10:33:30;95298.97;;;35.04;32.93
43450;BME280;29041;42.266;23.110;2023-07-20T10:36:24;95312.28;;;34.36;33.98
43450;BME280;29041;42.266;23.110;2023-07-20T10:39:22;95300.34;;;34.56;33.77
43450;BME280;29041;42.266;23.110;2023-07-20T10:42:10;95299.50;;;34.76;33.95
43450;BME280;29041;42.266;23.110;2023-07-20T10:44:57;95302.38;;;34.55;33.50
43450;BME280;29041;42.266;23.110;2023-07-20T10:47:46;95301.91;;;34.10;33.11
43450;BME280;29041;42.266;23.110;2023-07-20T10:50:33;95293.28;;;34.34;32.59
43450;BME280;29041;42.266;23.110;2023-07-20T10:53:20;95290.34;;;34.70;31.93
43450;BME280;29041;42.266;23.110;2023-07-20T10:56:11;95287.47;;;34.90;31.41
43450;BME280;29041;42.266;23.110;2023-07-20T10:58:59;95286.88;;;34.86;31.87
43450;BME280;29041;42.266;23.110;2023-07-20T11:01:48;95280.47;;;34.42;31.61
43450;BME280;29041;42.266;23.110;2023-07-20T11:04:41;95274.47;;;34.50;31.11
43450;BME280;29041;42.266;23.110;2023-07-20T11:07:37;95267.78;;;34.15;33.19
43450;BME280;29041;42.266;23.110;2023-07-20T11:10:24;95262.53;;;34.81;30.90
43450;BME280;29041;42.266;23.110;2023-07-20T11:13:19;95255.06;;;34.67;30.75
43450;BME280;29041;42.266;23.110;2023-07-20T11:16:07;95255.53;;;34.91;30.87
43450;BME280;29041;42.266;23.110;2023-07-20T11:18:55;95245.47;;;35.05;29.90
43450;BME280;29041;42.266;23.110;2023-07-20T11:21:45;95249.38;;;35.68;29.83
43450;BME280;29041;42.266;23.110;2023-07-20T11:24:32;95240.88;;;36.12;29.90
43450;BME280;29041;42.266;23.110;2023-07-20T11:27:20;95241.25;;;34.84;30.27
43450;BME280;29041;42.266;23.110;2023-07-20T11:30:15;95230.91;;;34.52;30.53
43450;BME280;29041;42.266;23.110;2023-07-20T11:33:02;95231.94;;;34.55;31.08
43450;BME280;29041;42.266;23.110;2023-07-20T11:35:50;95220.88;;;34.66;31.01
43450;BME280;29041;42.266;23.110;2023-07-20T11:38:41;95220.22;;;33.92;32.23
43450;BME280;29041;42.266;23.110;2023-07-20T11:41:29;95226.28;;;34.17;31.56
43450;BME280;29041;42.266;23.110;2023-07-20T11:44:17;95213.97;;;34.29;31.85
43450;BME280;29041;42.266;23.110;2023-07-20T11:47:05;95212.41;;;34.55;31.72
43450;BME280;29041;42.266;23.110;2023-07-20T11:49:53;95211.72;;;34.33;32.20
43450;BME280;29041;42.266;23.110;2023-07-20T11:52:40;95205.50;;;34.44;31.64
43450;BME280;29041;42.266;23.110;2023-07-20T11:55:29;95197.75;;;34.54;31.58
43450;BME280;29041;42.266;23.110;2023-07-20T11:58:17;95195.56;;;34.70;31.48
43450;BME280;29041;42.266;23.110;2023-07-20T12:01:05;95186.19;;;34.73;31.63
43450;BME280;29041;42.266;23.110;2023-07-20T12:03:52;95188.25;;;34.78;31.50
43450;BME280;29041;42.266;23.110;2023-07-20T12:06:39;95187.69;;;35.11;31.38
43450;BME280;29041;42.266;23.110;2023-07-20T12:09:27;95180.09;;;35.12;31.02
43450;BME280;29041;42.266;23.110;2023-07-20T12:12:15;95175.00;;;35.05;32.50
43450;BME280;29041;42.266;23.110;2023-07-20T12:15:15;95180.34;;;35.08;31.66
43450;BME280;29041;42.266;23.110;2023-07-20T12:18:03;95184.97;;;35.23;30.88
43450;BME280;29041;42.266;23.110;2023-07-20T12:20:58;95168.50;;;35.31;31.77
43450;BME280;29041;42.266;23.110;2023-07-20T12:23:45;95163.88;;;35.16;31.59
43450;BME280;29041;42.266;23.110;2023-07-20T12:26:33;95162.16;;;35.24;31.99
43450;BME280;29041;42.266;23.110;2023-07-20T12:29:22;95165.13;;;34.66;32.70
43450;BME280;29041;42.266;23.110;2023-07-20T12:32:09;95158.94;;;34.88;31.51
43450;BME280;29041;42.266;23.110;2023-07-20T12:34:56;95163.84;;;34.61;32.54
43450;BME280;29041;42.266;23.110;2023-07-20T12:37:45;95156.00;;;34.33;32.99
43450;BME280;29041;42.266;23.110;2023-07-20T12:40:34;95152.59;;;34.50;33.29
43450;BME280;29041;42.266;23.110;2023-07-20T12:43:22;95152.53;;;34.39;34.04
43450;BME280;29041;42.266;23.110;2023-07-20T12:46:11;95143.16;;;34.79;34.06
43450;BME280;29041;42.266;23.110;2023-07-20T12:48:58;95143.22;;;33.89;35.34
43450;BME280;29041;42.266;23.110;2023-07-20T12:51:46;95135.75;;;34.65;35.08
43450;BME280;29041;42.266;23.110;2023-07-20T12:54:33;95129.25;;;34.85;34.31
43450;BME280;29041;42.266;23.110;2023-07-20T12:57:20;95132.91;;;34.59;34.10
43450;BME280;29041;42.266;23.110;2023-07-20T13:00:09;95134.34;;;34.43;34.72
43450;BME280;29041;42.266;23.110;2023-07-20T13:02:58;95132.75;;;34.37;35.22
43450;BME280;29041;42.266;23.110;2023-07-20T13:05:46;95136.06;;;34.41;35.31
43450;BME280;29041;42.266;23.110;2023-07-20T13:08:33;95128.31;;;34.56;34.89
43450;BME280;29041;42.266;23.110;2023-07-20T13:11:20;95112.50;;;34.79;34.77
43450;BME280;29041;42.266;23.110;2023-07-20T13:14:08;95118.31;;;34.76;34.92
43450;BME280;29041;42.266;23.110;2023-07-20T13:16:55;95113.59;;;34.50;34.91
43450;BME280;29041;42.266;23.110;2023-07-20T13:19:44;95112.88;;;34.55;35.67
43450;BME280;29041;42.266;23.110;2023-07-20T13:22:32;95106.72;;;34.89;34.38
43450;BME280;29041;42.266;23.110;2023-07-20T13:25:19;95097.94;;;35.07;34.69
43450;BME280;29041;42.266;23.110;2023-07-20T13:28:07;95094.97;;;35.28;34.67
43450;BME280;29041;42.266;23.110;2023-07-20T13:30:54;95101.75;;;35.10;33.86
43450;BME280;29041;42.266;23.110;2023-07-20T13:33:43;95104.59;;;34.35;34.56
43450;BME280;29041;42.266;23.110;2023-07-20T13:36:32;95093.63;;;34.57;34.27
43450;BME280;29041;42.266;23.110;2023-07-20T13:39:19;95092.50;;;34.87;34.78
43450;BME280;29041;42.266;23.110;2023-07-20T13:42:10;95077.00;;;34.80;34.36
43450;BME280;29041;42.266;23.110;2023-07-20T13:44:58;95081.06;;;34.79;34.79
43450;BME280;29041;42.266;23.110;2023-07-20T13:47:45;95084.31;;;33.96;35.19
43450;BME280;29041;42.266;23.110;2023-07-20T13:50:32;95082.16;;;34.06;34.79
43450;BME280;29041;42.266;23.110;2023-07-20T13:53:21;95070.41;;;33.96;35.04
43450;BME280;29041;42.266;23.110;2023-07-20T13:56:08;95072.50;;;34.02;34.90
43450;BME280;29041;42.266;23.110;2023-07-20T13:58:55;95063.28;;;33.90;35.31
43450;BME280;29041;42.266;23.110;2023-07-20T14:01:43;95075.81;;;33.79;35.05
43450;BME280;29041;42.266;23.110;2023-07-20T14:04:30;95072.66;;;33.92;35.01
43450;BME280;29041;42.266;23.110;2023-07-20T14:07:17;95084.00;;;34.21;35.86
43450;BME280;29041;42.266;23.110;2023-07-20T14:10:06;95088.81;;;35.07;34.92
43450;BME280;29041;42.266;23.110;2023-07-20T14:12:54;95085.97;;;34.95;35.64
43450;BME280;29041;42.266;23.110;2023-07-20T14:15:41;95093.16;;;34.59;37.11
43450;BME280;29041;42.266;23.110;2023-07-20T14:18:28;95098.56;;;34.36;37.90
43450;BME280;29041;42.266;23.110;2023-07-20T14:21:16;95091.97;;;34.02;38.96
43450;BME280;29041;42.266;23.110;2023-07-20T14:24:05;95090.13;;;33.93;37.95
43450;BME280;29041;42.266;23.110;2023-07-20T14:26:54;95091.13;;;33.90;38.47
43450;BME280;29041;42.266;23.110;2023-07-20T14:29:41;95093.28;;;34.06;39.51
43450;BME280;29041;42.266;23.110;2023-07-20T14:32:29;95107.03;;;33.36;41.23
43450;BME280;29041;42.266;23.110;2023-07-20T14:35:17;95108.63;;;33.43;41.70
43450;BME280;29041;42.266;23.110;2023-07-20T14:38:04;95108.91;;;33.45;41.61
43450;BME280;29041;42.266;23.110;2023-07-20T14:40:51;95080.59;;;33.47;40.79